Time;durP1;ratioP1;P1;durP2;ratioP2;P2;SDS_P1;SDS_P2;PMS_P1;PMS_P2;Temp;Humidity;BMP_temperature;BMP_pressure;BME280_temperature;BME280_humidity;BME280_pressure;Samples;Min_cycle;Max_cycle;Signal;HPM_P1;HPM_P2
2024/02/16 00:01:01;;;;;;;10.85;4.55;;;11.20;99.90;;;;;;5043038;28;20095;-71
2024/02/16 00:03:27;;;;;;;12.13;4.95;;;11.20;99.90;;;;;;5041648;28;20076;-65
2024/02/16 00:05:53;;;;;;;12.30;4.22;;;11.20;99.90;;;;;;5046378;28;20044;-65
2024/02/16 00:08:22;;;;;;;10.93;4.38;;;11.10;99.90;;;;;;5056024;28;20504;-65
2024/02/16 00:10:48;;;;;;;10.15;4.70;;;11.20;99.90;;;;;;5050347;28;20095;-69
2024/02/16 00:13:14;;;;;;;10.65;4.70;;;11.10;99.90;;;;;;5051523;28;20037;-70
2024/02/16 00:15:40;;;;;;;16.50;4.60;;;11.10;99.90;;;;;;5054275;28;20071;-69
2024/02/16 00:18:07;;;;;;;12.65;4.47;;;11.10;99.90;;;;;;5061308;28;20036;-65
2024/02/16 00:20:33;;;;;;;10.43;4.70;;;11.10;99.90;;;;;;5051712;28;20052;-69
2024/02/16 00:23:00;;;;;;;12.82;4.78;;;11.10;99.90;;;;;;5047770;28;20381;-67
2024/02/16 00:25:25;;;;;;;15.68;4.80;;;11.10;99.90;;;;;;5040883;28;20048;-65
2024/02/16 00:27:52;;;;;;;11.48;4.57;;;11.10;99.90;;;;;;5039360;28;20041;-71
2024/02/16 00:30:22;;;;;;;11.20;4.45;;;11.10;99.90;;;;;;5042497;28;20159;-67
2024/02/16 00:32:48;;;;;;;12.48;4.90;;;11.10;99.90;;;;;;5045283;28;20047;-65
2024/02/16 00:35:19;;;;;;;11.70;4.65;;;11.10;99.90;;;;;;5044527;28;20037;-65
2024/02/16 00:37:45;;;;;;;12.73;4.65;;;11.10;99.90;;;;;;5039495;28;20053;-65
2024/02/16 00:40:11;;;;;;;12.05;4.25;;;11.00;99.90;;;;;;5042665;28;20029;-72
2024/02/16 00:42:38;;;;;;;9.82;4.70;;;11.00;99.90;;;;;;5042055;28;20033;-68
2024/02/16 00:45:04;;;;;;;12.15;5.00;;;11.00;99.90;;;;;;5041241;28;20199;-65
2024/02/16 00:47:30;;;;;;;9.88;4.65;;;11.00;99.90;;;;;;5044123;28;20071;-65
2024/02/16 00:49:56;;;;;;;9.52;4.40;;;11.00;99.90;;;;;;5045009;28;20455;-69
2024/02/16 00:52:22;;;;;;;9.68;4.55;;;11.00;99.90;;;;;;5046405;28;20123;-65
2024/02/16 00:54:48;;;;;;;9.00;4.47;;;11.00;99.90;;;;;;5044202;28;20108;-65
2024/02/16 00:57:14;;;;;;;13.80;4.78;;;11.00;99.90;;;;;;5040037;28;20449;-72
2024/02/16 00:59:41;;;;;;;13.07;4.38;;;11.00;99.90;;;;;;5045042;28;20110;-65
2024/02/16 01:02:07;;;;;;;9.32;4.32;;;10.90;99.90;;;;;;5044326;28;20071;-65
2024/02/16 01:04:33;;;;;;;11.90;4.85;;;10.90;99.90;;;;;;5036853;28;20052;-65
2024/02/16 01:06:59;;;;;;;11.98;5.38;;;10.90;99.90;;;;;;5046583;28;20048;-72
2024/02/16 01:09:24;;;;;;;13.98;4.68;;;10.90;99.90;;;;;;5052227;28;20033;-65
2024/02/16 01:11:50;;;;;;;12.75;4.63;;;10.90;99.90;;;;;;5046484;28;20455;-65
2024/02/16 01:14:16;;;;;;;13.60;4.32;;;10.90;99.90;;;;;;5043491;28;20029;-71
2024/02/16 01:16:41;;;;;;;10.00;4.35;;;10.90;99.90;;;;;;5040950;28;20604;-66
2024/02/16 01:19:07;;;;;;;11.15;4.53;;;10.80;99.90;;;;;;5053462;28;20887;-65
2024/02/16 01:21:33;;;;;;;11.73;4.63;;;10.90;99.90;;;;;;5044087;28;20112;-65
2024/02/16 01:24:00;;;;;;;10.60;4.50;;;10.80;99.90;;;;;;5040957;28;20037;-70
2024/02/16 01:26:27;;;;;;;8.55;4.50;;;10.80;99.90;;;;;;5037052;28;20046;-70
2024/02/16 01:28:52;;;;;;;10.77;4.05;;;10.80;99.90;;;;;;5042438;28;20044;-65
2024/02/16 01:31:18;;;;;;;11.18;4.55;;;10.80;99.90;;;;;;5036405;28;20129;-70
2024/02/16 01:33:43;;;;;;;8.60;4.65;;;10.80;99.90;;;;;;5044428;28;20046;-68
2024/02/16 01:36:10;;;;;;;9.15;4.40;;;10.80;99.90;;;;;;5031872;28;20159;-65
2024/02/16 01:38:36;;;;;;;9.65;4.70;;;10.80;99.90;;;;;;5046103;28;20037;-65
2024/02/16 01:41:02;;;;;;;9.30;4.50;;;10.80;99.90;;;;;;5038437;28;20051;-70
2024/02/16 01:43:27;;;;;;;10.82;4.82;;;10.80;99.90;;;;;;5043980;28;20045;-65
2024/02/16 01:45:53;;;;;;;11.80;4.10;;;10.80;99.90;;;;;;5044191;28;20044;-66
2024/02/16 01:48:19;;;;;;;11.57;4.45;;;10.80;99.90;;;;;;5034478;28;20045;-71
2024/02/16 01:50:46;;;;;;;9.88;4.03;;;10.80;99.90;;;;;;5036636;28;20051;-68
2024/02/16 01:53:18;;;;;;;11.40;4.38;;;10.80;99.90;;;;;;5027849;28;20042;-65
2024/02/16 01:55:44;;;;;;;;;;;10.80;99.90;;;;;;5047532;28;20055;-65
2024/02/16 01:58:11;;;;;;;7.28;3.63;;;10.80;99.90;;;;;;5043717;28;19920;-65
2024/02/16 02:00:36;;;;;;;10.00;4.18;;;10.80;99.90;;;;;;5042842;28;20485;-71
2024/02/16 02:03:03;;;;;;;9.35;4.22;;;10.70;99.90;;;;;;5045971;28;20049;-65
2024/02/16 02:05:28;;;;;;;8.93;3.97;;;10.80;99.90;;;;;;5033971;28;20088;-65
2024/02/16 02:07:54;;;;;;;7.63;3.70;;;10.80;99.90;;;;;;5039087;28;20501;-70
2024/02/16 02:10:20;;;;;;;8.77;3.60;;;10.80;99.90;;;;;;5037297;28;20123;-71
2024/02/16 02:12:45;;;;;;;9.60;3.83;;;10.80;99.90;;;;;;5035549;28;20035;-70
2024/02/16 02:15:11;;;;;;;7.13;3.58;;;10.80;99.90;;;;;;5037755;28;20435;-65
2024/02/16 02:17:38;;;;;;;9.02;3.85;;;10.70;99.90;;;;;;5043624;28;20082;-71
2024/02/16 02:20:07;;;;;;;9.32;3.53;;;10.70;99.90;;;;;;5040219;28;20048;-70
2024/02/16 02:22:33;;;;;;;9.40;4.22;;;10.80;99.90;;;;;;5034883;28;20037;-65
2024/02/16 02:24:59;;;;;;;8.18;3.75;;;10.70;99.90;;;;;;5040954;28;20045;-65
2024/02/16 02:27:25;;;;;;;7.47;3.78;;;10.70;99.90;;;;;;5047228;28;20373;-71
2024/02/16 02:29:51;;;;;;;8.65;3.80;;;10.70;99.90;;;;;;5040722;28;20044;-65
2024/02/16 02:32:17;;;;;;;7.65;3.70;;;10.70;99.90;;;;;;5041782;28;20044;-67
2024/02/16 02:34:43;;;;;;;10.52;3.85;;;10.70;99.90;;;;;;5039548;28;20044;-70
2024/02/16 02:37:08;;;;;;;10.18;4.05;;;10.70;99.90;;;;;;5038841;28;20052;-70
2024/02/16 02:39:34;;;;;;;10.43;3.50;;;10.70;99.90;;;;;;5046286;28;20237;-68
2024/02/16 02:42:00;;;;;;;9.15;3.58;;;10.70;99.90;;;;;;5036264;28;20033;-65
2024/02/16 02:44:26;;;;;;;7.80;3.65;;;10.70;99.90;;;;;;5042867;28;20041;-69
2024/02/16 02:46:52;;;;;;;9.00;3.70;;;10.70;99.90;;;;;;5047272;28;20692;-65
2024/02/16 02:49:18;;;;;;;10.52;3.90;;;10.70;99.90;;;;;;5038791;28;20134;-65
2024/02/16 02:51:44;;;;;;;7.00;4.13;;;10.70;99.90;;;;;;5033871;28;20041;-68
2024/02/16 02:54:10;;;;;;;10.30;4.28;;;10.60;99.90;;;;;;5049155;28;20053;-70
2024/02/16 02:56:35;;;;;;;7.45;3.50;;;10.60;99.90;;;;;;5052728;28;20055;-65
2024/02/16 02:59:01;;;;;;;9.98;4.18;;;10.60;99.90;;;;;;5042089;28;20103;-66
2024/02/16 03:01:27;;;;;;;10.95;3.83;;;10.60;99.90;;;;;;5041779;28;20063;-71
2024/02/16 03:03:53;;;;;;;10.18;3.60;;;10.60;99.90;;;;;;5051780;28;20033;-64
2024/02/16 03:06:19;;;;;;;10.27;4.47;;;10.60;99.90;;;;;;5041701;28;20040;-64
2024/02/16 03:08:45;;;;;;;8.30;3.97;;;10.60;99.90;;;;;;5045212;28;20029;-73
2024/02/16 03:11:11;;;;;;;7.40;3.83;;;10.60;99.90;;;;;;5043407;28;20037;-66
2024/02/16 03:13:37;;;;;;;10.25;4.05;;;10.60;99.90;;;;;;5043550;28;20037;-67
2024/02/16 03:16:03;;;;;;;9.35;3.88;;;10.60;99.90;;;;;;5048182;28;20037;-67
2024/02/16 03:18:30;;;;;;;10.70;3.40;;;10.60;99.90;;;;;;5045915;28;20403;-67
2024/02/16 03:20:56;;;;;;;5.85;3.25;;;10.60;99.90;;;;;;5049964;28;20033;-67
2024/02/16 03:23:22;;;;;;;11.40;3.50;;;10.60;99.90;;;;;;5044304;28;20084;-67
2024/02/16 03:25:48;;;;;;;6.97;3.92;;;10.60;99.90;;;;;;5051113;28;20079;-67
2024/02/16 03:28:15;;;;;;;8.32;3.35;;;10.60;99.90;;;;;;5035289;28;20095;-67
2024/02/16 03:30:41;;;;;;;9.13;4.05;;;10.60;99.90;;;;;;5040062;28;20080;-67
2024/02/16 03:33:08;;;;;;;7.45;3.60;;;10.60;99.90;;;;;;5047791;28;20483;-67
2024/02/16 03:35:33;;;;;;;7.13;3.63;;;10.10;99.90;;;;;;5043738;28;20033;-67
2024/02/16 03:37:59;;;;;;;5.40;3.40;;;10.50;99.90;;;;;;5038316;28;20047;-67
2024/02/16 03:40:25;;;;;;;9.95;3.92;;;10.60;99.90;;;;;;5040306;28;20052;-68
2024/02/16 03:42:55;;;;;;;7.97;3.67;;;10.60;99.90;;;;;;5046892;28;20037;-68
2024/02/16 03:45:21;;;;;;;11.07;4.10;;;10.60;99.90;;;;;;5039848;28;20037;-67
2024/02/16 03:47:48;;;;;;;8.00;3.60;;;10.60;99.90;;;;;;5037748;28;20055;-67
2024/02/16 03:50:15;;;;;;;7.57;3.80;;;10.60;99.90;;;;;;5043985;28;20094;-67
2024/02/16 03:52:41;;;;;;;6.75;3.65;;;10.50;99.90;;;;;;5045388;28;20471;-67
2024/02/16 03:55:07;;;;;;;7.03;3.70;;;10.60;99.90;;;;;;5039940;28;20041;-67
2024/02/16 03:57:33;;;;;;;7.60;3.67;;;10.60;99.90;;;;;;5039749;28;20155;-67
2024/02/16 03:59:59;;;;;;;10.20;3.70;;;10.60;99.90;;;;;;5041286;28;20116;-67
2024/02/16 04:02:25;;;;;;;6.57;3.53;;;10.60;99.90;;;;;;5041459;28;20111;-67
2024/02/16 04:04:51;;;;;;;9.05;3.58;;;10.60;99.90;;;;;;5044087;28;20051;-67
2024/02/16 04:07:17;;;;;;;9.68;3.72;;;10.60;99.90;;;;;;5046280;28;20042;-67
2024/02/16 04:09:43;;;;;;;7.25;3.80;;;10.60;99.90;;;;;;5040612;28;20764;-67
2024/02/16 04:12:09;;;;;;;8.20;4.03;;;10.60;99.90;;;;;;5043817;28;20041;-67
2024/02/16 04:14:35;;;;;;;10.77;3.53;;;10.60;99.90;;;;;;5040564;28;20095;-67
2024/02/16 04:17:00;;;;;;;7.47;3.97;;;10.60;99.90;;;;;;5040030;28;20668;-67
2024/02/16 04:19:26;;;;;;;9.30;3.83;;;10.60;99.90;;;;;;5045266;28;20032;-67
2024/02/16 04:21:52;;;;;;;11.18;4.10;;;10.60;99.90;;;;;;5045537;28;20041;-67
2024/02/16 04:24:17;;;;;;;9.10;4.05;;;10.60;99.90;;;;;;5043783;28;20060;-67
2024/02/16 04:26:44;;;;;;;8.00;3.80;;;10.60;99.90;;;;;;5052373;28;20052;-67
2024/02/16 04:29:09;;;;;;;7.97;3.65;;;10.60;99.90;;;;;;5043586;28;20626;-67
2024/02/16 04:31:35;;;;;;;9.77;3.95;;;10.60;99.90;;;;;;5046425;28;20040;-67
2024/02/16 04:34:01;;;;;;;5.97;3.40;;;10.50;99.90;;;;;;5040847;28;20045;-66
2024/02/16 04:36:27;;;;;;;8.18;3.38;;;10.50;99.90;;;;;;5038762;28;20087;-67
2024/02/16 04:38:53;;;;;;;8.00;3.50;;;10.60;99.90;;;;;;5042433;28;20060;-67
2024/02/16 04:41:21;;;;;;;7.55;3.78;;;10.50;99.90;;;;;;5045741;28;20467;-67
2024/02/16 04:43:47;;;;;;;10.98;4.35;;;10.50;99.90;;;;;;5043911;28;20104;-67
2024/02/16 04:46:16;;;;;;;12.00;3.85;;;10.50;99.90;;;;;;5045676;28;20563;-67
2024/02/16 04:48:42;;;;;;;9.48;3.53;;;10.40;99.90;;;;;;5049173;28;20037;-67
2024/02/16 04:51:07;;;;;;;8.90;3.72;;;10.40;99.90;;;;;;5045274;28;20040;-67
2024/02/16 04:53:33;;;;;;;7.45;3.90;;;10.40;99.90;;;;;;5034716;28;20041;-67
2024/02/16 04:55:58;;;;;;;6.68;3.80;;;10.40;99.90;;;;;;5046108;28;20040;-67
2024/02/16 04:58:24;;;;;;;8.05;3.75;;;10.40;99.90;;;;;;5043424;28;20530;-67
2024/02/16 05:00:50;;;;;;;8.88;3.63;;;10.40;99.90;;;;;;5044711;28;20050;-67
2024/02/16 05:03:15;;;;;;;8.93;3.55;;;10.40;99.90;;;;;;5037141;28;20033;-67
2024/02/16 05:05:41;;;;;;;10.63;4.47;;;10.40;99.90;;;;;;5041867;28;20069;-67
2024/02/16 05:08:07;;;;;;;8.88;4.13;;;10.40;99.90;;;;;;5042986;28;20124;-69
2024/02/16 05:10:32;;;;;;;8.15;3.83;;;10.40;99.90;;;;;;5045194;28;20064;-64
2024/02/16 05:12:58;;;;;;;5.85;3.50;;;10.40;99.90;;;;;;5042565;28;20040;-64
2024/02/16 05:15:24;;;;;;;8.02;4.18;;;10.40;99.90;;;;;;5054593;28;20423;-72
2024/02/16 05:17:50;;;;;;;8.65;3.80;;;10.50;99.90;;;;;;5042262;28;20037;-68
2024/02/16 05:20:16;;;;;;;11.07;3.67;;;11.00;99.90;;;;;;5044277;28;20091;-65
2024/02/16 05:22:43;;;;;;;11.20;3.95;;;10.40;99.90;;;;;;5034298;28;20417;-64
2024/02/16 05:25:10;;;;;;;8.70;4.15;;;10.40;99.90;;;;;;5044869;28;20116;-72
2024/02/16 05:27:37;;;;;;;7.38;3.75;;;10.50;99.90;;;;;;5031714;28;20045;-67
2024/02/16 05:30:07;;;;;;;7.07;3.88;;;10.50;99.90;;;;;;5030764;28;20151;-65
2024/02/16 05:32:36;;;;;;;8.23;3.97;;;10.50;99.90;;;;;;5041118;28;20107;-64
2024/02/16 05:35:11;;;;;;;6.38;3.55;;;10.50;99.90;;;;;;5035699;28;20500;-69
2024/02/16 05:37:39;;;;;;;9.90;3.70;;;10.50;99.90;;;;;;5034649;28;20103;-71
2024/02/16 05:40:18;;;;;;;8.88;3.80;;;10.50;99.90;;;;;;5043034;28;20063;-68
2024/02/16 05:42:48;;;;;;;8.57;4.18;;;10.50;99.90;;;;;;5034563;28;20053;-72
2024/02/16 05:45:15;;;;;;;8.35;3.75;;;10.50;99.90;;;;;;5042162;28;20048;-64
2024/02/16 05:47:48;;;;;;;12.45;4.20;;;10.60;99.90;;;;;;5044507;28;20480;-65
2024/02/16 05:50:17;;;;;;;6.35;3.60;;;10.60;99.90;;;;;;5043987;28;20077;-64
2024/02/16 05:52:44;;;;;;;13.60;4.43;;;10.60;99.90;;;;;;5037568;28;20077;-65
2024/02/16 05:55:10;;;;;;;13.23;3.70;;;10.60;99.90;;;;;;5040459;28;20041;-64
2024/02/16 05:57:37;;;;;;;8.85;3.90;;;10.60;99.90;;;;;;5036408;28;20798;-68
2024/02/16 06:00:08;;;;;;;9.65;4.13;;;10.60;99.90;;;;;;5034569;28;20049;-67
2024/02/16 06:02:34;;;;;;;9.55;4.07;;;10.60;99.90;;;;;;5037621;28;20065;-65
2024/02/16 06:05:04;;;;;;;9.43;4.18;;;10.60;99.90;;;;;;5041069;28;20087;-64
2024/02/16 06:07:30;;;;;;;7.80;4.00;;;10.70;99.90;;;;;;5040094;28;20044;-64
2024/02/16 06:09:56;;;;;;;8.32;3.60;;;10.60;99.90;;;;;;5041767;28;20033;-66
2024/02/16 06:12:22;;;;;;;7.93;3.58;;;10.60;99.90;;;;;;5041891;28;20124;-71
2024/02/16 06:14:52;;;;;;;12.65;3.97;;;10.60;99.90;;;;;;5042549;28;20467;-68
2024/02/16 06:17:18;;;;;;;9.82;3.90;;;10.60;99.90;;;;;;5034508;28;20033;-66
2024/02/16 06:19:44;;;;;;;8.80;4.18;;;10.60;99.90;;;;;;5040539;28;20037;-64
2024/02/16 06:22:09;;;;;;;8.05;3.83;;;10.60;99.90;;;;;;5043785;28;20492;-70
2024/02/16 06:24:36;;;;;;;9.55;4.20;;;10.50;99.90;;;;;;5031847;28;20683;-66
2024/02/16 06:27:03;;;;;;;8.05;4.35;;;10.50;99.90;;;;;;5039271;28;20076;-64
2024/02/16 06:29:30;;;;;;;6.20;3.88;;;10.50;99.90;;;;;;5042607;28;20037;-71
2024/02/16 06:31:56;;;;;;;6.75;3.80;;;10.50;99.90;;;;;;5055846;28;20040;-68
2024/02/16 06:34:21;;;;;;;9.52;3.92;;;10.50;99.90;;;;;;5043981;28;20090;-67
2024/02/16 06:36:47;;;;;;;9.88;4.30;;;10.50;99.90;;;;;;5043260;28;20123;-72
2024/02/16 06:39:16;;;;;;;8.95;4.03;;;10.40;99.90;;;;;;5041753;28;20033;-67
2024/02/16 06:41:46;;;;;;;7.60;4.00;;;10.50;99.90;;;;;;5047079;28;20041;-68
2024/02/16 06:44:12;;;;;;;6.90;3.40;;;10.50;99.90;;;;;;5047072;28;20036;-69
2024/02/16 06:46:38;;;;;;;10.98;4.32;;;10.50;99.90;;;;;;5049253;28;20044;-67
2024/02/16 06:49:04;;;;;;;10.07;4.25;;;10.50;99.90;;;;;;5050005;28;20041;-66
2024/02/16 06:51:30;;;;;;;9.55;4.43;;;10.50;99.90;;;;;;5047279;28;20153;-70
2024/02/16 06:53:55;;;;;;;9.05;3.85;;;10.50;99.90;;;;;;5039751;28;20044;-64
2024/02/16 06:56:21;;;;;;;7.88;4.30;;;10.50;99.90;;;;;;5042946;28;20030;-68
2024/02/16 06:58:47;;;;;;;10.30;4.15;;;10.50;99.90;;;;;;5046215;28;20044;-64
2024/02/16 07:01:18;;;;;;;7.53;4.88;;;10.50;99.90;;;;;;5044008;28;20033;-65
2024/02/16 07:03:44;;;;;;;8.48;4.25;;;10.40;99.90;;;;;;5041977;28;20048;-68
2024/02/16 07:06:10;;;;;;;7.32;4.40;;;10.40;99.90;;;;;;5040603;28;20148;-68
2024/02/16 07:08:42;;;;;;;8.35;4.00;;;10.50;99.90;;;;;;5045465;28;20140;-64
2024/02/16 07:11:08;;;;;;;;;;;10.50;99.90;;;;;;5035410;28;20524;-65
2024/02/16 07:13:34;;;;;;;10.18;4.85;;;10.50;99.90;;;;;;5043679;28;19920;-72
2024/02/16 07:16:00;;;;;;;8.90;4.70;;;10.50;99.90;;;;;;5046302;28;20045;-68
2024/02/16 07:18:26;;;;;;;10.68;4.55;;;10.50;99.90;;;;;;5040117;28;20044;-64
2024/02/16 07:20:51;;;;;;;6.55;4.15;;;10.50;99.90;;;;;;5047886;28;20029;-73
2024/02/16 07:23:17;;;;;;;8.05;4.30;;;10.70;99.90;;;;;;5046867;28;20400;-66
2024/02/16 07:25:43;;;;;;;9.27;4.45;;;10.60;99.90;;;;;;5046348;28;20119;-66
2024/02/16 07:28:09;;;;;;;10.75;4.68;;;10.60;99.90;;;;;;5040277;28;20415;-70
2024/02/16 07:30:38;;;;;;;7.60;4.47;;;10.60;99.90;;;;;;5043472;28;20045;-65
2024/02/16 07:33:04;;;;;;;7.93;4.45;;;10.70;99.90;;;;;;5042107;28;20057;-65
2024/02/16 07:35:30;;;;;;;9.32;4.90;;;10.70;99.90;;;;;;5054758;28;20519;-65
2024/02/16 07:37:55;;;;;;;6.90;4.28;;;10.80;99.90;;;;;;5040213;28;20045;-68
2024/02/16 07:40:22;;;;;;;11.55;5.00;;;10.80;99.90;;;;;;5056092;28;20025;-71
2024/02/16 07:42:47;;;;;;;8.95;4.50;;;10.80;99.90;;;;;;5045260;28;20746;-67
2024/02/16 07:45:13;;;;;;;8.10;4.28;;;10.80;99.90;;;;;;5045303;28;20175;-64
2024/02/16 07:47:41;;;;;;;8.50;4.50;;;10.80;99.90;;;;;;5042500;28;20040;-71
2024/02/16 07:50:07;;;;;;;9.13;4.35;;;10.80;99.90;;;;;;5044660;28;20115;-68
2024/02/16 07:52:33;;;;;;;9.80;4.93;;;10.90;99.90;;;;;;5040615;28;20116;-64
2024/02/16 07:54:59;;;;;;;10.55;4.30;;;10.90;99.90;;;;;;5042033;28;20124;-64
2024/02/16 07:57:25;;;;;;;13.98;4.80;;;10.90;99.90;;;;;;5048109;28;20043;-69
2024/02/16 07:59:50;;;;;;;10.82;4.60;;;10.90;99.90;;;;;;5049403;28;20043;-64
2024/02/16 08:02:17;;;;;;;10.10;4.82;;;11.10;99.90;;;;;;5041441;28;20118;-65
2024/02/16 08:04:49;;;;;;;9.73;4.60;;;11.00;99.90;;;;;;5047148;28;20488;-70
2024/02/16 08:07:16;;;;;;;8.68;4.65;;;11.00;99.90;;;;;;5048875;28;20044;-72
2024/02/16 08:09:45;;;;;;;9.93;4.68;;;11.00;99.90;;;;;;5048858;28;20029;-64
2024/02/16 08:12:11;;;;;;;9.75;4.40;;;11.00;99.90;;;;;;5039674;28;20032;-64
2024/02/16 08:14:39;;;;;;;8.25;4.57;;;11.00;99.90;;;;;;5051923;28;20028;-65
2024/02/16 08:17:05;;;;;;;8.95;4.80;;;11.10;99.90;;;;;;5044495;28;20516;-71
2024/02/16 08:19:33;;;;;;;7.57;4.65;;;11.10;99.90;;;;;;5039693;28;20041;-65
2024/02/16 08:22:04;;;;;;;75.15;7.63;;;11.10;99.90;;;;;;5035014;28;20083;-65
2024/02/16 08:24:35;;;;;;;9.40;4.63;;;11.10;99.90;;;;;;5048811;28;20045;-64
2024/02/16 08:27:01;;;;;;;10.57;4.50;;;11.20;99.90;;;;;;5045952;28;20036;-68
2024/02/16 08:29:27;;;;;;;10.73;4.63;;;11.20;99.90;;;;;;5039575;28;20037;-71
2024/02/16 08:31:54;;;;;;;10.02;4.43;;;11.20;99.90;;;;;;5045186;28;20025;-64
2024/02/16 08:34:19;;;;;;;6.90;4.07;;;11.20;99.90;;;;;;5041369;28;20041;-68
2024/02/16 08:36:49;;;;;;;9.25;4.57;;;11.30;99.90;;;;;;5043077;28;20036;-68
2024/02/16 08:39:16;;;;;;;8.52;4.63;;;11.30;99.90;;;;;;5047826;28;20731;-70
2024/02/16 08:41:41;;;;;;;8.60;4.75;;;11.30;99.90;;;;;;5045145;28;20048;-68
2024/02/16 08:44:10;;;;;;;9.05;4.38;;;11.40;99.90;;;;;;5044518;28;20045;-69
2024/02/16 08:46:39;;;;;;;9.27;4.80;;;11.40;99.90;;;;;;5041864;28;20044;-65
2024/02/16 08:49:05;;;;;;;8.82;4.47;;;11.40;99.90;;;;;;5042385;28;20037;-71
2024/02/16 08:51:34;;;;;;;9.13;4.55;;;11.50;99.90;;;;;;5042272;28;20619;-66
2024/02/16 08:54:00;;;;;;;9.07;4.68;;;11.50;99.90;;;;;;5036618;28;20033;-68
2024/02/16 08:56:25;;;;;;;9.52;4.63;;;11.60;99.90;;;;;;5046271;28;20040;-67
2024/02/16 08:58:51;;;;;;;12.13;4.70;;;11.60;99.90;;;;;;5043616;28;20446;-68
2024/02/16 09:01:17;;;;;;;8.05;4.60;;;11.70;99.90;;;;;;5050143;28;20045;-64
2024/02/16 09:03:43;;;;;;;10.50;4.60;;;11.70;99.90;;;;;;5044169;28;20041;-64
2024/02/16 09:06:08;;;;;;;11.95;4.80;;;11.80;99.90;;;;;;5045140;28;20481;-70
2024/02/16 09:08:35;;;;;;;8.45;4.90;;;11.80;99.90;;;;;;5044465;28;20037;-66
2024/02/16 09:11:04;;;;;;;11.43;4.97;;;11.90;99.90;;;;;;5042240;28;20038;-65
2024/02/16 09:13:32;;;;;;;9.77;5.00;;;11.90;99.90;;;;;;5044237;28;20100;-65
2024/02/16 09:15:57;;;;;;;10.82;5.50;;;12.00;99.90;;;;;;5044873;28;20385;-71
2024/02/16 09:18:23;;;;;;;12.88;4.85;;;12.00;99.90;;;;;;5047161;28;20049;-67
2024/02/16 09:20:48;;;;;;;24.50;6.05;;;12.10;99.90;;;;;;5045492;28;20060;-65
2024/02/16 09:23:14;;;;;;;8.27;4.72;;;12.10;99.90;;;;;;5050845;28;20032;-69
2024/02/16 09:25:40;;;;;;;13.15;5.30;;;12.10;99.90;;;;;;5043427;28;20408;-72
2024/02/16 09:28:07;;;;;;;10.35;4.93;;;12.20;99.90;;;;;;5044340;28;20765;-67
2024/02/16 09:30:32;;;;;;;11.48;4.72;;;12.20;99.90;;;;;;5046849;28;20516;-67
2024/02/16 09:32:58;;;;;;;8.07;4.88;;;12.20;99.90;;;;;;5044247;28;20067;-67
2024/02/16 09:35:24;;;;;;;11.60;5.40;;;12.30;99.90;;;;;;5043700;28;20168;-72
2024/02/16 09:37:49;;;;;;;8.88;4.90;;;12.30;99.90;;;;;;5038061;28;20132;-64
2024/02/16 09:40:15;;;;;;;8.75;5.00;;;12.30;99.90;;;;;;5042123;28;20025;-67
2024/02/16 09:42:41;;;;;;;9.77;5.53;;;12.30;99.90;;;;;;5044413;28;20037;-71
2024/02/16 09:45:07;;;;;;;9.50;5.10;;;12.40;99.90;;;;;;5043794;28;20044;-64
2024/02/16 09:47:34;;;;;;;12.75;5.38;;;12.40;99.90;;;;;;5044045;28;20116;-64
2024/02/16 09:50:01;;;;;;;10.35;5.38;;;12.50;99.90;;;;;;5042591;28;20049;-66
2024/02/16 09:52:26;;;;;;;10.88;5.50;;;12.60;99.90;;;;;;5044533;28;20048;-64
2024/02/16 09:54:52;;;;;;;10.98;5.05;;;12.60;99.90;;;;;;5044009;28;20640;-64
2024/02/16 09:57:18;;;;;;;10.85;5.10;;;12.60;99.90;;;;;;5042478;28;20048;-64
2024/02/16 09:59:44;;;;;;;10.15;5.07;;;12.70;99.90;;;;;;5043583;28;20443;-69
2024/02/16 10:02:10;;;;;;;10.05;5.28;;;12.80;99.90;;;;;;5041021;28;20075;-65
2024/02/16 10:04:36;;;;;;;9.23;5.53;;;12.80;99.90;;;;;;5045384;28;20108;-65
2024/02/16 10:07:01;;;;;;;10.57;5.60;;;12.90;99.90;;;;;;5041349;28;20040;-69
2024/02/16 10:09:32;;;;;;;10.80;5.38;;;12.90;99.90;;;;;;5043648;28;20428;-64
2024/02/16 10:11:57;;;;;;;10.50;5.82;;;13.00;99.90;;;;;;5043420;28;20066;-68
2024/02/16 10:14:25;;;;;;;12.35;5.90;;;13.10;99.90;;;;;;5045167;28;20033;-64
2024/02/16 10:17:06;;;;;;;12.88;5.65;;;13.20;99.90;;;;;;5039950;28;20487;-64
2024/02/16 10:19:39;;;;;;;11.98;5.65;;;13.20;99.90;;;;;;5039751;28;20033;-64
2024/02/16 10:22:09;;;;;;;9.85;5.93;;;13.30;99.90;;;;;;5049469;28;20037;-65
2024/02/16 10:24:35;;;;;;;11.32;6.07;;;13.30;99.90;;;;;;5046968;28;20505;-65
2024/02/16 10:27:00;;;;;;;11.30;6.13;;;13.30;99.90;;;;;;5042218;28;20079;-69
2024/02/16 10:29:27;;;;;;;9.55;6.00;;;13.20;99.90;;;;;;5042628;28;20508;-69
2024/02/16 10:31:52;;;;;;;11.25;5.90;;;13.30;99.90;;;;;;5042687;28;20037;-65
2024/02/16 10:34:20;;;;;;;11.25;6.13;;;13.20;99.90;;;;;;5050493;28;20083;-72
2024/02/16 10:36:46;;;;;;;11.70;6.07;;;13.20;99.90;;;;;;5040769;28;20029;-71
2024/02/16 10:39:13;;;;;;;12.55;6.90;;;13.10;99.90;;;;;;5043176;28;20113;-64
2024/02/16 10:41:41;;;;;;;13.25;6.90;;;13.10;99.90;;;;;;5044096;28;20065;-64
2024/02/16 10:44:07;;;;;;;10.88;6.85;;;13.10;99.90;;;;;;5050587;28;20045;-69
2024/02/16 10:46:33;;;;;;;13.48;7.22;;;13.10;99.90;;;;;;5043269;28;20094;-68
2024/02/16 10:49:00;;;;;;;11.55;6.93;;;13.00;99.90;;;;;;5042738;28;20041;-64
2024/02/16 10:51:42;;;;;;;9.55;6.30;;;13.00;99.90;;;;;;5041923;28;20073;-64
2024/02/16 10:54:09;;;;;;;9.43;6.32;;;12.90;99.90;;;;;;5035178;28;20099;-64
2024/02/16 10:56:40;;;;;;;9.90;6.60;;;12.90;99.90;;;;;;5042010;28;20416;-70
2024/02/16 10:59:08;;;;;;;14.40;7.45;;;12.90;99.90;;;;;;5040221;28;20041;-70
2024/02/16 11:01:41;;;;;;;12.85;6.82;;;12.80;99.90;;;;;;5043963;28;20025;-68
2024/02/16 11:04:09;;;;;;;13.13;6.85;;;12.80;99.90;;;;;;5039819;28;20558;-69
2024/02/16 11:06:56;;;;;;;12.52;7.30;;;12.70;99.90;;;;;;5039364;28;20045;-64
2024/02/16 11:09:39;;;;;;;11.23;7.20;;;12.70;99.90;;;;;;5030697;28;20342;-72
2024/02/16 11:12:11;;;;;;;14.98;7.30;;;12.80;99.90;;;;;;5038510;28;20076;-64
2024/02/16 11:14:45;;;;;;;10.90;7.35;;;12.60;99.90;;;;;;5037873;28;20547;-68
2024/02/16 11:17:15;;;;;;;14.70;7.75;;;12.70;99.90;;;;;;5038023;28;20037;-64
2024/02/16 11:19:45;;;;;;;11.82;8.18;;;12.60;99.90;;;;;;5041607;28;20033;-69
2024/02/16 11:22:17;;;;;;;11.98;7.30;;;12.60;99.90;;;;;;5049358;28;20029;-69
2024/02/16 11:24:45;;;;;;;12.97;8.07;;;12.50;99.90;;;;;;5040200;28;20485;-65
2024/02/16 11:27:11;;;;;;;12.50;8.23;;;12.50;99.90;;;;;;5037133;28;20033;-65
2024/02/16 11:29:38;;;;;;;12.10;8.35;;;12.50;99.90;;;;;;5036405;28;20102;-65
2024/02/16 11:32:05;;;;;;;17.30;8.77;;;12.40;99.90;;;;;;5044562;28;20040;-72
2024/02/16 11:34:33;;;;;;;13.85;9.32;;;12.40;99.90;;;;;;5045948;28;20045;-66
2024/02/16 11:37:00;;;;;;;15.60;9.27;;;12.40;99.90;;;;;;5037461;28;20679;-66
2024/02/16 11:39:27;;;;;;;17.90;10.13;;;12.40;99.90;;;;;;5039691;28;20068;-71
2024/02/16 11:42:03;;;;;;;17.60;10.30;;;12.30;99.90;;;;;;5046478;28;20025;-70
2024/02/16 11:44:33;;;;;;;15.60;10.70;;;12.20;99.90;;;;;;5045152;28;20102;-68
2024/02/16 11:47:00;;;;;;;18.20;10.20;;;12.20;99.90;;;;;;5044851;28;20037;-72
2024/02/16 11:49:26;;;;;;;18.27;11.32;;;12.20;99.90;;;;;;5042297;28;20048;-65
2024/02/16 11:51:52;;;;;;;18.05;11.90;;;12.20;99.90;;;;;;5036256;28;20037;-65
2024/02/16 11:54:18;;;;;;;20.42;13.23;;;12.10;99.90;;;;;;5036248;28;20056;-67
2024/02/16 11:56:45;;;;;;;24.02;13.80;;;12.10;99.90;;;;;;5043311;28;20047;-65
2024/02/16 11:59:15;;;;;;;29.33;15.40;;;12.00;99.90;;;;;;5041725;28;20037;-69
2024/02/16 12:01:54;;;;;;;23.23;15.43;;;12.00;99.90;;;;;;5045204;28;20115;-65
2024/02/16 12:04:24;;;;;;;24.15;14.75;;;12.00;99.90;;;;;;5033275;28;20669;-65
2024/02/16 12:06:57;;;;;;;25.40;15.50;;;11.90;99.90;;;;;;5038038;28;20425;-65
2024/02/16 12:09:24;;;;;;;24.52;16.52;;;11.90;99.90;;;;;;5040031;28;20072;-68
2024/02/16 12:11:49;;;;;;;28.20;15.70;;;11.90;99.90;;;;;;5037115;28;20049;-65
2024/02/16 12:14:20;;;;;;;24.15;13.80;;;11.80;99.90;;;;;;5043348;28;20041;-68
2024/02/16 12:16:55;;;;;;;25.27;14.52;;;11.80;99.90;;;;;;5044199;28;20037;-71
2024/02/16 12:19:22;;;;;;;25.92;13.80;;;11.80;99.90;;;;;;5041971;28;20034;-66
2024/02/16 12:21:57;;;;;;;30.60;15.88;;;11.70;99.90;;;;;;5038599;28;20037;-69
2024/02/16 12:24:23;;;;;;;26.95;13.93;;;11.70;99.90;;;;;;5039605;28;20112;-65
2024/02/16 12:26:49;;;;;;;25.58;13.95;;;11.70;99.90;;;;;;5040169;28;20036;-65
2024/02/16 12:29:16;;;;;;;23.33;12.82;;;11.70;99.90;;;;;;5044786;28;20078;-69
2024/02/16 12:31:47;;;;;;;22.13;11.85;;;11.70;99.90;;;;;;5043140;28;20044;-67
2024/02/16 12:34:13;;;;;;;18.35;11.05;;;11.70;99.90;;;;;;5046251;28;20045;-67
2024/02/16 12:36:40;;;;;;;17.65;9.90;;;11.70;99.90;;;;;;5041818;28;20086;-65
2024/02/16 12:39:06;;;;;;;15.18;9.65;;;11.70;99.90;;;;;;5032722;28;20147;-70